sensor_id;sensor_type;location;lat;lon;timestamp;P1;durP1;ratioP1;P2;durP2;ratioP2
47513;SDS011;33951;51.988;5.910;2022-11-14T00:01:16;39.83;;;26.60;;
47513;SDS011;33951;51.988;5.910;2022-11-14T00:04:04;34.83;;;24.38;;
47513;SDS011;33951;51.988;5.910;2022-11-14T00:06:40;33.95;;;22.88;;
47513;SDS011;33951;51.988;5.910;2022-11-14T00:09:36;41.50;;;24.80;;
47513;SDS011;33951;51.988;5.910;2022-11-14T00:12:11;38.95;;;26.15;;
47513;SDS011;33951;51.988;5.910;2022-11-14T00:14:46;36.97;;;26.63;;
47513;SDS011;33951;51.988;5.910;2022-11-14T00:17:24;38.40;;;25.33;;
47513;SDS011;33951;51.988;5.910;2022-11-14T00:19:52;38.67;;;26.33;;
47513;SDS011;33951;51.988;5.910;2022-11-14T00:22:23;43.03;;;28.58;;
47513;SDS011;33951;51.988;5.910;2022-11-14T00:24:56;36.67;;;25.08;;
47513;SDS011;33951;51.988;5.910;2022-11-14T00:27:25;43.15;;;27.55;;
47513;SDS011;33951;51.988;5.910;2022-11-14T00:29:50;39.35;;;26.63;;
47513;SDS011;33951;51.988;5.910;2022-11-14T00:32:24;38.58;;;26.33;;
47513;SDS011;33951;51.988;5.910;2022-11-14T00:34:55;43.38;;;26.80;;
47513;SDS011;33951;51.988;5.910;2022-11-14T00:37:23;48.60;;;30.52;;
47513;SDS011;33951;51.988;5.910;2022-11-14T00:39:49;38.40;;;26.65;;
47513;SDS011;33951;51.988;5.910;2022-11-14T00:42:20;42.17;;;29.60;;
47513;SDS011;33951;51.988;5.910;2022-11-14T00:44:48;39.03;;;26.40;;
47513;SDS011;33951;51.988;5.910;2022-11-14T00:47:27;43.53;;;28.67;;
47513;SDS011;33951;51.988;5.910;2022-11-14T00:50:00;40.10;;;27.98;;
47513;SDS011;33951;51.988;5.910;2022-11-14T00:52:44;45.63;;;29.52;;
47513;SDS011;33951;51.988;5.910;2022-11-14T00:57:59;45.47;;;29.08;;
47513;SDS011;33951;51.988;5.910;2022-11-14T06:02:56;51.05;;;30.20;;
47513;SDS011;33951;51.988;5.910;2022-11-14T06:05:31;52.25;;;28.77;;
47513;SDS011;33951;51.988;5.910;2022-11-14T06:08:02;52.85;;;28.48;;
47513;SDS011;33951;51.988;5.910;2022-11-14T06:10:28;55.05;;;31.52;;
47513;SDS011;33951;51.988;5.910;2022-11-14T06:12:56;52.65;;;30.33;;
47513;SDS011;33951;51.988;5.910;2022-11-14T06:15:22;50.15;;;26.95;;
47513;SDS011;33951;51.988;5.910;2022-11-14T06:17:47;48.65;;;27.98;;
47513;SDS011;33951;51.988;5.910;2022-11-14T06:20:15;43.80;;;26.90;;
47513;SDS011;33951;51.988;5.910;2022-11-14T06:22:41;48.15;;;27.48;;
47513;SDS011;33951;51.988;5.910;2022-11-14T06:25:07;49.00;;;28.92;;
47513;SDS011;33951;51.988;5.910;2022-11-14T06:27:33;55.05;;;30.23;;
47513;SDS011;33951;51.988;5.910;2022-11-14T06:29:59;50.75;;;29.33;;
47513;SDS011;33951;51.988;5.910;2022-11-14T06:32:24;49.50;;;28.35;;
47513;SDS011;33951;51.988;5.910;2022-11-14T06:34:50;49.80;;;28.63;;
47513;SDS011;33951;51.988;5.910;2022-11-14T06:37:15;44.75;;;26.35;;
47513;SDS011;33951;51.988;5.910;2022-11-14T06:39:41;47.65;;;28.60;;
47513;SDS011;33951;51.988;5.910;2022-11-14T06:42:06;48.47;;;28.27;;
47513;SDS011;33951;51.988;5.910;2022-11-14T06:44:32;50.45;;;28.52;;
47513;SDS011;33951;51.988;5.910;2022-11-14T06:46:58;47.35;;;27.50;;
47513;SDS011;33951;51.988;5.910;2022-11-14T06:49:23;51.78;;;28.33;;
47513;SDS011;33951;51.988;5.910;2022-11-14T06:51:51;55.95;;;30.98;;
47513;SDS011;33951;51.988;5.910;2022-11-14T06:54:17;57.03;;;30.75;;
47513;SDS011;33951;51.988;5.910;2022-11-14T06:56:43;50.90;;;27.98;;
47513;SDS011;33951;51.988;5.910;2022-11-14T06:59:08;48.42;;;28.80;;
47513;SDS011;33951;51.988;5.910;2022-11-14T07:01:34;52.03;;;28.67;;
47513;SDS011;33951;51.988;5.910;2022-11-14T07:04:02;48.03;;;27.98;;
47513;SDS011;33951;51.988;5.910;2022-11-14T07:06:28;48.67;;;27.88;;
47513;SDS011;33951;51.988;5.910;2022-11-14T07:08:55;54.03;;;28.33;;
47513;SDS011;33951;51.988;5.910;2022-11-14T07:11:27;41.97;;;24.87;;
47513;SDS011;33951;51.988;5.910;2022-11-14T07:14:06;48.70;;;26.67;;
47513;SDS011;33951;51.988;5.910;2022-11-14T07:16:36;47.40;;;27.17;;
47513;SDS011;33951;51.988;5.910;2022-11-14T07:19:03;47.63;;;27.85;;
47513;SDS011;33951;51.988;5.910;2022-11-14T07:21:33;55.70;;;28.00;;
47513;SDS011;33951;51.988;5.910;2022-11-14T07:23:59;48.00;;;28.08;;
47513;SDS011;33951;51.988;5.910;2022-11-14T07:26:25;45.70;;;25.95;;
47513;SDS011;33951;51.988;5.910;2022-11-14T07:28:50;42.88;;;26.27;;
47513;SDS011;33951;51.988;5.910;2022-11-14T07:31:17;51.92;;;27.27;;
47513;SDS011;33951;51.988;5.910;2022-11-14T07:33:44;45.10;;;27.40;;
47513;SDS011;33951;51.988;5.910;2022-11-14T07:36:11;47.88;;;28.20;;
47513;SDS011;33951;51.988;5.910;2022-11-14T07:38:39;43.15;;;26.65;;
47513;SDS011;33951;51.988;5.910;2022-11-14T07:41:15;47.10;;;27.70;;
47513;SDS011;33951;51.988;5.910;2022-11-14T07:43:42;47.90;;;27.65;;
47513;SDS011;33951;51.988;5.910;2022-11-14T07:46:11;51.47;;;27.27;;
47513;SDS011;33951;51.988;5.910;2022-11-14T07:48:38;42.17;;;25.40;;
47513;SDS011;33951;51.988;5.910;2022-11-14T07:51:04;46.80;;;26.95;;
47513;SDS011;33951;51.988;5.910;2022-11-14T07:53:33;47.50;;;26.08;;
47513;SDS011;33951;51.988;5.910;2022-11-14T07:56:04;46.85;;;25.85;;
47513;SDS011;33951;51.988;5.910;2022-11-14T07:58:31;42.63;;;26.95;;
47513;SDS011;33951;51.988;5.910;2022-11-14T08:00:59;46.53;;;26.60;;
47513;SDS011;33951;51.988;5.910;2022-11-14T08:03:26;43.15;;;26.02;;
47513;SDS011;33951;51.988;5.910;2022-11-14T08:05:58;44.17;;;26.17;;
47513;SDS011;33951;51.988;5.910;2022-11-14T08:08:35;38.63;;;23.65;;
47513;SDS011;33951;51.988;5.910;2022-11-14T08:11:01;44.35;;;26.20;;
47513;SDS011;33951;51.988;5.910;2022-11-14T08:13:27;50.22;;;28.27;;
47513;SDS011;33951;51.988;5.910;2022-11-14T08:15:53;43.90;;;27.52;;
47513;SDS011;33951;51.988;5.910;2022-11-14T08:18:19;44.40;;;26.95;;
47513;SDS011;33951;51.988;5.910;2022-11-14T08:20:45;42.13;;;25.77;;
47513;SDS011;33951;51.988;5.910;2022-11-14T08:23:11;45.70;;;25.05;;
47513;SDS011;33951;51.988;5.910;2022-11-14T08:25:37;40.92;;;23.65;;
47513;SDS011;33951;51.988;5.910;2022-11-14T08:28:02;51.30;;;24.80;;
47513;SDS011;33951;51.988;5.910;2022-11-14T08:30:28;43.47;;;24.58;;
47513;SDS011;33951;51.988;5.910;2022-11-14T08:32:55;43.08;;;26.55;;
47513;SDS011;33951;51.988;5.910;2022-11-14T08:35:20;43.30;;;27.10;;
47513;SDS011;33951;51.988;5.910;2022-11-14T08:37:47;43.17;;;26.50;;
47513;SDS011;33951;51.988;5.910;2022-11-14T08:40:15;37.92;;;23.90;;
47513;SDS011;33951;51.988;5.910;2022-11-14T08:42:40;39.08;;;23.80;;
47513;SDS011;33951;51.988;5.910;2022-11-14T08:45:06;40.20;;;25.25;;
47513;SDS011;33951;51.988;5.910;2022-11-14T08:47:32;63.60;;;40.08;;
47513;SDS011;33951;51.988;5.910;2022-11-14T08:49:57;39.45;;;25.45;;
47513;SDS011;33951;51.988;5.910;2022-11-14T08:52:23;40.67;;;26.35;;
47513;SDS011;33951;51.988;5.910;2022-11-14T08:54:48;44.97;;;26.63;;
47513;SDS011;33951;51.988;5.910;2022-11-14T08:57:14;38.05;;;24.70;;
47513;SDS011;33951;51.988;5.910;2022-11-14T08:59:40;38.40;;;24.02;;
47513;SDS011;33951;51.988;5.910;2022-11-14T09:02:12;37.00;;;23.00;;
47513;SDS011;33951;51.988;5.910;2022-11-14T09:04:40;37.97;;;23.10;;
47513;SDS011;33951;51.988;5.910;2022-11-14T09:07:06;37.85;;;23.67;;
47513;SDS011;33951;51.988;5.910;2022-11-14T09:09:34;36.53;;;23.95;;
47513;SDS011;33951;51.988;5.910;2022-11-14T09:12:02;39.83;;;25.95;;
47513;SDS011;33951;51.988;5.910;2022-11-14T09:14:28;35.05;;;23.38;;
47513;SDS011;33951;51.988;5.910;2022-11-14T09:17:03;35.20;;;22.63;;
47513;SDS011;33951;51.988;5.910;2022-11-14T09:19:29;56.03;;;34.80;;
47513;SDS011;33951;51.988;5.910;2022-11-14T09:21:57;42.55;;;28.40;;
47513;SDS011;33951;51.988;5.910;2022-11-14T09:24:23;34.38;;;23.38;;
47513;SDS011;33951;51.988;5.910;2022-11-14T09:26:54;35.50;;;21.45;;
47513;SDS011;33951;51.988;5.910;2022-11-14T09:29:20;32.92;;;20.98;;
47513;SDS011;33951;51.988;5.910;2022-11-14T09:31:52;82.03;;;48.33;;
47513;SDS011;33951;51.988;5.910;2022-11-14T09:34:33;34.53;;;21.48;;
47513;SDS011;33951;51.988;5.910;2022-11-14T09:37:03;37.63;;;21.63;;
47513;SDS011;33951;51.988;5.910;2022-11-14T09:45:14;36.53;;;20.73;;
47513;SDS011;33951;51.988;5.910;2022-11-14T09:47:56;29.60;;;19.50;;
47513;SDS011;33951;51.988;5.910;2022-11-14T09:51:22;40.75;;;25.65;;
47513;SDS011;33951;51.988;5.910;2022-11-14T09:54:26;34.08;;;21.15;;
47513;SDS011;33951;51.988;5.910;2022-11-14T09:57:33;27.85;;;19.63;;
47513;SDS011;33951;51.988;5.910;2022-11-14T10:00:12;29.75;;;19.83;;
47513;SDS011;33951;51.988;5.910;2022-11-14T10:05:23;26.27;;;19.27;;
47513;SDS011;33951;51.988;5.910;2022-11-14T10:11:12;27.60;;;19.75;;
47513;SDS011;33951;51.988;5.910;2022-11-14T10:14:14;28.52;;;19.58;;
47513;SDS011;33951;51.988;5.910;2022-11-14T10:28:33;29.38;;;19.13;;
47513;SDS011;33951;51.988;5.910;2022-11-14T10:37:03;27.75;;;19.40;;
47513;SDS011;33951;51.988;5.910;2022-11-14T10:39:59;25.35;;;16.95;;
47513;SDS011;33951;51.988;5.910;2022-11-14T10:48:44;23.95;;;17.45;;
47513;SDS011;33951;51.988;5.910;2022-11-14T10:51:45;27.83;;;17.35;;
47513;SDS011;33951;51.988;5.910;2022-11-14T10:57:29;24.73;;;17.75;;
47513;SDS011;33951;51.988;5.910;2022-11-14T10:59:58;24.23;;;18.13;;
47513;SDS011;33951;51.988;5.910;2022-11-14T11:02:24;25.67;;;16.63;;
47513;SDS011;33951;51.988;5.910;2022-11-14T11:04:49;22.85;;;17.75;;
47513;SDS011;33951;51.988;5.910;2022-11-14T11:10:32;21.48;;;16.88;;
47513;SDS011;33951;51.988;5.910;2022-11-14T11:16:24;25.50;;;19.35;;
47513;SDS011;33951;51.988;5.910;2022-11-14T11:22:03;22.83;;;16.13;;
47513;SDS011;33951;51.988;5.910;2022-11-14T11:24:38;26.52;;;18.15;;
47513;SDS011;33951;51.988;5.910;2022-11-14T11:27:21;29.17;;;17.10;;
47513;SDS011;33951;51.988;5.910;2022-11-14T11:32:49;26.42;;;18.40;;
47513;SDS011;33951;51.988;5.910;2022-11-14T11:35:17;31.00;;;19.50;;
47513;SDS011;33951;51.988;5.910;2022-11-14T11:38:03;26.85;;;18.85;;
47513;SDS011;33951;51.988;5.910;2022-11-14T11:40:29;28.95;;;20.40;;
47513;SDS011;33951;51.988;5.910;2022-11-14T11:46:25;32.42;;;23.38;;
47513;SDS011;33951;51.988;5.910;2022-11-14T11:52:01;32.35;;;23.17;;
47513;SDS011;33951;51.988;5.910;2022-11-14T11:54:52;32.05;;;21.98;;
47513;SDS011;33951;51.988;5.910;2022-11-14T11:57:47;32.45;;;22.88;;
47513;SDS011;33951;51.988;5.910;2022-11-14T12:00:20;35.03;;;23.73;;
47513;SDS011;33951;51.988;5.910;2022-11-14T12:02:47;34.65;;;25.38;;
47513;SDS011;33951;51.988;5.910;2022-11-14T12:05:17;33.90;;;24.55;;
47513;SDS011;33951;51.988;5.910;2022-11-14T12:08:08;36.20;;;26.42;;
47513;SDS011;33951;51.988;5.910;2022-11-14T12:10:42;37.30;;;27.45;;
47513;SDS011;33951;51.988;5.910;2022-11-14T12:35:01;38.15;;;26.38;;
47513;SDS011;33951;51.988;5.910;2022-11-14T12:41:20;36.15;;;24.05;;
47513;SDS011;33951;51.988;5.910;2022-11-14T12:44:30;40.67;;;25.38;;
47513;SDS011;33951;51.988;5.910;2022-11-14T12:47:24;35.28;;;25.20;;
47513;SDS011;33951;51.988;5.910;2022-11-14T13:00:00;31.52;;;21.98;;
47513;SDS011;33951;51.988;5.910;2022-11-14T13:09:09;27.98;;;19.08;;
47513;SDS011;33951;51.988;5.910;2022-11-14T13:11:53;28.95;;;20.23;;
47513;SDS011;33951;51.988;5.910;2022-11-14T13:14:56;26.70;;;19.75;;
47513;SDS011;33951;51.988;5.910;2022-11-14T13:17:41;30.77;;;20.05;;
47513;SDS011;33951;51.988;5.910;2022-11-14T13:20:59;26.58;;;20.40;;
47513;SDS011;33951;51.988;5.910;2022-11-14T13:31:57;30.73;;;19.15;;
47513;SDS011;33951;51.988;5.910;2022-11-14T13:46:30;29.38;;;21.20;;
47513;SDS011;33951;51.988;5.910;2022-11-14T13:49:31;27.33;;;20.07;;
47513;SDS011;33951;51.988;5.910;2022-11-14T13:52:22;29.00;;;19.17;;
47513;SDS011;33951;51.988;5.910;2022-11-14T13:55:17;27.85;;;20.40;;
47513;SDS011;33951;51.988;5.910;2022-11-14T14:13:17;27.40;;;18.05;;
47513;SDS011;33951;51.988;5.910;2022-11-14T14:19:19;28.50;;;20.00;;
47513;SDS011;33951;51.988;5.910;2022-11-14T14:22:04;35.20;;;23.30;;
47513;SDS011;33951;51.988;5.910;2022-11-14T14:30:16;25.55;;;17.80;;
47513;SDS011;33951;51.988;5.910;2022-11-14T14:33:21;30.27;;;19.13;;
47513;SDS011;33951;51.988;5.910;2022-11-14T14:36:03;26.10;;;17.85;;
47513;SDS011;33951;51.988;5.910;2022-11-14T14:38:46;26.13;;;18.98;;
47513;SDS011;33951;51.988;5.910;2022-11-14T14:41:23;33.88;;;23.58;;
47513;SDS011;33951;51.988;5.910;2022-11-14T14:44:10;51.78;;;33.83;;
47513;SDS011;33951;51.988;5.910;2022-11-14T14:46:45;28.88;;;20.40;;
47513;SDS011;33951;51.988;5.910;2022-11-14T14:49:28;25.50;;;18.27;;
47513;SDS011;33951;51.988;5.910;2022-11-14T14:58:51;24.60;;;18.50;;
47513;SDS011;33951;51.988;5.910;2022-11-14T15:01:19;25.88;;;18.27;;
47513;SDS011;33951;51.988;5.910;2022-11-14T15:04:25;25.55;;;17.95;;
47513;SDS011;33951;51.988;5.910;2022-11-14T15:06:55;26.92;;;18.42;;
47513;SDS011;33951;51.988;5.910;2022-11-14T15:15:48;28.85;;;18.25;;
47513;SDS011;33951;51.988;5.910;2022-11-14T15:18:25;26.75;;;17.55;;
47513;SDS011;33951;51.988;5.910;2022-11-14T15:21:29;25.88;;;17.55;;
47513;SDS011;33951;51.988;5.910;2022-11-14T15:27:53;25.15;;;18.20;;
47513;SDS011;33951;51.988;5.910;2022-11-14T15:31:02;28.42;;;17.67;;
47513;SDS011;33951;51.988;5.910;2022-11-14T15:33:34;23.42;;;17.52;;
47513;SDS011;33951;51.988;5.910;2022-11-14T15:36:13;22.00;;;16.55;;
47513;SDS011;33951;51.988;5.910;2022-11-14T15:42:10;33.72;;;23.55;;
47513;SDS011;33951;51.988;5.910;2022-11-14T15:45:00;24.52;;;18.42;;
47513;SDS011;33951;51.988;5.910;2022-11-14T15:48:05;25.60;;;17.05;;
47513;SDS011;33951;51.988;5.910;2022-11-14T15:50:42;22.58;;;15.70;;
47513;SDS011;33951;51.988;5.910;2022-11-14T15:53:37;21.95;;;16.10;;
47513;SDS011;33951;51.988;5.910;2022-11-14T15:56:19;22.08;;;16.38;;
47513;SDS011;33951;51.988;5.910;2022-11-14T15:58:55;21.73;;;15.95;;
47513;SDS011;33951;51.988;5.910;2022-11-14T16:01:32;22.50;;;16.45;;
47513;SDS011;33951;51.988;5.910;2022-11-14T16:04:07;23.57;;;16.20;;
47513;SDS011;33951;51.988;5.910;2022-11-14T16:07:04;22.45;;;16.75;;
47513;SDS011;33951;51.988;5.910;2022-11-14T16:09:57;25.20;;;18.42;;
47513;SDS011;33951;51.988;5.910;2022-11-14T16:12:30;32.58;;;21.67;;
47513;SDS011;33951;51.988;5.910;2022-11-14T16:15:04;25.98;;;19.50;;
47513;SDS011;33951;51.988;5.910;2022-11-14T16:17:33;28.92;;;19.23;;
47513;SDS011;33951;51.988;5.910;2022-11-14T16:20:18;27.85;;;19.95;;
47513;SDS011;33951;51.988;5.910;2022-11-14T16:23:09;28.40;;;19.48;;
47513;SDS011;33951;51.988;5.910;2022-11-14T16:25:37;27.75;;;19.55;;
47513;SDS011;33951;51.988;5.910;2022-11-14T16:28:03;29.67;;;21.55;;
47513;SDS011;33951;51.988;5.910;2022-11-14T16:30:32;32.47;;;21.38;;
47513;SDS011;33951;51.988;5.910;2022-11-14T16:33:00;32.20;;;24.45;;
47513;SDS011;33951;51.988;5.910;2022-11-14T16:35:26;26.60;;;19.70;;
47513;SDS011;33951;51.988;5.910;2022-11-14T16:38:03;24.67;;;19.52;;
47513;SDS011;33951;51.988;5.910;2022-11-14T16:40:46;26.65;;;19.63;;
47513;SDS011;33951;51.988;5.910;2022-11-14T16:43:15;26.48;;;19.20;;
47513;SDS011;33951;51.988;5.910;2022-11-14T16:45:49;30.17;;;21.05;;
47513;SDS011;33951;51.988;5.910;2022-11-14T16:48:24;28.92;;;23.20;;
47513;SDS011;33951;51.988;5.910;2022-11-14T16:51:14;28.17;;;21.10;;
47513;SDS011;33951;51.988;5.910;2022-11-14T16:53:52;28.52;;;21.55;;
47513;SDS011;33951;51.988;5.910;2022-11-14T16:56:34;28.02;;;21.20;;
47513;SDS011;33951;51.988;5.910;2022-11-14T16:59:22;27.52;;;22.05;;
47513;SDS011;33951;51.988;5.910;2022-11-14T17:02:05;31.20;;;21.55;;
47513;SDS011;33951;51.988;5.910;2022-11-14T17:04:56;28.38;;;21.55;;
47513;SDS011;33951;51.988;5.910;2022-11-14T17:07:29;30.20;;;20.35;;
47513;SDS011;33951;51.988;5.910;2022-11-14T17:10:06;30.60;;;21.27;;
47513;SDS011;33951;51.988;5.910;2022-11-14T17:19:34;30.50;;;22.13;;
47513;SDS011;33951;51.988;5.910;2022-11-14T17:25:08;27.70;;;19.88;;
47513;SDS011;33951;51.988;5.910;2022-11-14T17:27:46;34.03;;;23.00;;
47513;SDS011;33951;51.988;5.910;2022-11-14T17:30:19;28.80;;;21.20;;
47513;SDS011;33951;51.988;5.910;2022-11-14T17:32:54;31.63;;;20.40;;
47513;SDS011;33951;51.988;5.910;2022-11-14T17:35:36;31.80;;;21.00;;
47513;SDS011;33951;51.988;5.910;2022-11-14T17:38:07;31.90;;;21.75;;
47513;SDS011;33951;51.988;5.910;2022-11-14T17:40:56;34.75;;;20.63;;
47513;SDS011;33951;51.988;5.910;2022-11-14T17:43:22;33.30;;;21.60;;
47513;SDS011;33951;51.988;5.910;2022-11-14T17:45:57;33.50;;;21.20;;
47513;SDS011;33951;51.988;5.910;2022-11-14T17:48:47;30.73;;;20.20;;
47513;SDS011;33951;51.988;5.910;2022-11-14T17:51:13;28.25;;;18.30;;
47513;SDS011;33951;51.988;5.910;2022-11-14T17:53:45;33.20;;;20.55;;
47513;SDS011;33951;51.988;5.910;2022-11-14T17:56:25;31.20;;;19.13;;
47513;SDS011;33951;51.988;5.910;2022-11-14T17:59:10;26.42;;;19.40;;
47513;SDS011;33951;51.988;5.910;2022-11-14T18:01:36;27.52;;;18.58;;
47513;SDS011;33951;51.988;5.910;2022-11-14T18:04:11;27.38;;;19.45;;
47513;SDS011;33951;51.988;5.910;2022-11-14T18:07:06;39.75;;;24.90;;
47513;SDS011;33951;51.988;5.910;2022-11-14T18:09:50;31.85;;;19.83;;
47513;SDS011;33951;51.988;5.910;2022-11-14T18:12:54;29.45;;;20.55;;
47513;SDS011;33951;51.988;5.910;2022-11-14T18:15:28;31.83;;;20.13;;
47513;SDS011;33951;51.988;5.910;2022-11-14T18:20:50;30.55;;;22.50;;
47513;SDS011;33951;51.988;5.910;2022-11-14T20:45:27;34.78;;;19.08;;
47513;SDS011;33951;51.988;5.910;2022-11-14T21:04:17;32.67;;;19.67;;
47513;SDS011;33951;51.988;5.910;2022-11-14T21:07:13;27.98;;;19.00;;
47513;SDS011;33951;51.988;5.910;2022-11-14T21:45:49;32.25;;;21.10;;
47513;SDS011;33951;51.988;5.910;2022-11-14T21:48:58;33.25;;;21.92;;
47513;SDS011;33951;51.988;5.910;2022-11-14T21:52:24;34.30;;;19.80;;
47513;SDS011;33951;51.988;5.910;2022-11-14T21:58:54;31.30;;;20.83;;
47513;SDS011;33951;51.988;5.910;2022-11-14T22:01:51;33.67;;;21.30;;
47513;SDS011;33951;51.988;5.910;2022-11-14T22:04:44;37.33;;;22.98;;
47513;SDS011;33951;51.988;5.910;2022-11-14T22:07:19;32.45;;;22.13;;
47513;SDS011;33951;51.988;5.910;2022-11-14T22:09:59;35.13;;;22.73;;
47513;SDS011;33951;51.988;5.910;2022-11-14T22:12:43;35.75;;;22.23;;
47513;SDS011;33951;51.988;5.910;2022-11-14T22:21:50;35.38;;;21.98;;
47513;SDS011;33951;51.988;5.910;2022-11-14T22:24:20;38.58;;;21.58;;
47513;SDS011;33951;51.988;5.910;2022-11-14T22:27:22;33.33;;;21.10;;
47513;SDS011;33951;51.988;5.910;2022-11-14T22:31:08;34.83;;;22.38;;
47513;SDS011;33951;51.988;5.910;2022-11-14T22:34:06;32.30;;;20.92;;
47513;SDS011;33951;51.988;5.910;2022-11-14T22:36:40;35.50;;;21.80;;
47513;SDS011;33951;51.988;5.910;2022-11-14T22:39:17;36.33;;;22.65;;
47513;SDS011;33951;51.988;5.910;2022-11-14T22:42:14;35.45;;;23.27;;
47513;SDS011;33951;51.988;5.910;2022-11-14T22:44:52;37.75;;;22.75;;
47513;SDS011;33951;51.988;5.910;2022-11-14T22:47:26;35.58;;;20.63;;
47513;SDS011;33951;51.988;5.910;2022-11-14T22:49:55;34.22;;;22.42;;
47513;SDS011;33951;51.988;5.910;2022-11-14T22:52:58;34.25;;;22.35;;
47513;SDS011;33951;51.988;5.910;2022-11-14T22:56:22;35.13;;;22.13;;
47513;SDS011;33951;51.988;5.910;2022-11-14T22:58:57;39.00;;;22.85;;
47513;SDS011;33951;51.988;5.910;2022-11-14T23:01:31;44.85;;;24.85;;
47513;SDS011;33951;51.988;5.910;2022-11-14T23:04:03;44.42;;;26.85;;
47513;SDS011;33951;51.988;5.910;2022-11-14T23:06:30;38.25;;;23.83;;
47513;SDS011;33951;51.988;5.910;2022-11-14T23:09:00;45.40;;;26.50;;
47513;SDS011;33951;51.988;5.910;2022-11-14T23:11:28;41.30;;;26.15;;
47513;SDS011;33951;51.988;5.910;2022-11-14T23:13:57;45.63;;;26.42;;
47513;SDS011;33951;51.988;5.910;2022-11-14T23:16:28;46.83;;;26.83;;
47513;SDS011;33951;51.988;5.910;2022-11-14T23:18:56;46.47;;;26.05;;
47513;SDS011;33951;51.988;5.910;2022-11-14T23:21:27;49.10;;;28.00;;
47513;SDS011;33951;51.988;5.910;2022-11-14T23:23:59;43.80;;;26.05;;
47513;SDS011;33951;51.988;5.910;2022-11-14T23:26:26;50.83;;;28.65;;
47513;SDS011;33951;51.988;5.910;2022-11-14T23:28:53;45.13;;;27.00;;
47513;SDS011;33951;51.988;5.910;2022-11-14T23:31:22;47.40;;;27.98;;
47513;SDS011;33951;51.988;5.910;2022-11-14T23:33:51;50.72;;;26.25;;
47513;SDS011;33951;51.988;5.910;2022-11-14T23:36:21;48.50;;;25.50;;
47513;SDS011;33951;51.988;5.910;2022-11-14T23:38:54;50.65;;;27.70;;
47513;SDS011;33951;51.988;5.910;2022-11-14T23:41:23;55.97;;;30.20;;
47513;SDS011;33951;51.988;5.910;2022-11-14T23:43:52;64.60;;;30.38;;
47513;SDS011;33951;51.988;5.910;2022-11-14T23:46:17;63.47;;;33.03;;
47513;SDS011;33951;51.988;5.910;2022-11-14T23:48:52;76.90;;;34.88;;
47513;SDS011;33951;51.988;5.910;2022-11-14T23:51:22;72.32;;;34.15;;
47513;SDS011;33951;51.988;5.910;2022-11-14T23:53:48;66.97;;;32.97;;
47513;SDS011;33951;51.988;5.910;2022-11-14T23:56:17;85.47;;;34.25;;
47513;SDS011;33951;51.988;5.910;2022-11-14T23:58:48;88.10;;;44.42;;
